createdAt,value
2018-01-03T00:00:59.218Z,983.1
2018-01-03T00:01:59.878Z,983.1
2018-01-03T00:03:00.539Z,983.1
2018-01-03T00:04:01.198Z,983.0
2018-01-03T00:05:01.857Z,983.0
2018-01-03T00:06:02.517Z,983.0
2018-01-03T00:07:03.177Z,983.0
2018-01-03T00:08:03.886Z,982.9
2018-01-03T00:09:04.544Z,982.9
2018-01-03T00:10:05.259Z,982.8
2018-01-03T00:11:05.864Z,982.9
2018-01-03T00:12:06.521Z,982.8
2018-01-03T00:13:07.179Z,982.8
2018-01-03T00:14:07.837Z,982.8
2018-01-03T00:15:08.497Z,982.7
2018-01-03T00:16:09.156Z,982.6
2018-01-03T00:17:09.816Z,982.6
2018-01-03T00:18:10.476Z,982.6
2018-01-03T00:19:11.135Z,982.7
2018-01-03T00:20:11.795Z,982.5
2018-01-03T00:21:12.455Z,982.4
2018-01-03T00:22:13.114Z,982.5
2018-01-03T00:23:13.774Z,982.4
2018-01-03T00:24:14.435Z,982.3
2018-01-03T00:25:15.093Z,982.3
2018-01-03T00:26:15.753Z,982.3
2018-01-03T00:27:16.414Z,982.2
2018-01-03T00:28:17.072Z,982.1
2018-01-03T00:29:17.733Z,982.2
2018-01-03T00:30:18.392Z,982.1
2018-01-03T00:31:19.052Z,982.2
2018-01-03T00:32:19.711Z,982.2
2018-01-03T00:33:20.369Z,982.1
2018-01-03T00:34:21.030Z,982.0
2018-01-03T00:35:21.689Z,982.0
2018-01-03T00:36:22.348Z,982.0
2018-01-03T00:37:23.008Z,981.9
2018-01-03T00:38:23.668Z,982.0
2018-01-03T00:39:24.328Z,982.0
2018-01-03T00:40:24.987Z,981.9
2018-01-03T00:41:25.646Z,981.8
2018-01-03T00:42:26.306Z,981.8
2018-01-03T00:43:26.966Z,981.9
2018-01-03T00:44:27.626Z,981.9
2018-01-03T00:45:28.285Z,981.8
2018-01-03T00:46:28.980Z,981.6
2018-01-03T00:47:29.641Z,981.8
2018-01-03T00:48:30.301Z,981.6
2018-01-03T00:49:30.962Z,981.6
2018-01-03T00:50:31.623Z,981.6
2018-01-03T00:51:32.284Z,981.5
2018-01-03T00:52:32.979Z,981.4
2018-01-03T00:53:33.638Z,981.5
2018-01-03T00:54:34.296Z,981.5
2018-01-03T00:55:34.953Z,981.4
2018-01-03T00:56:35.612Z,981.4
2018-01-03T00:57:36.268Z,981.3
2018-01-03T00:58:36.926Z,981.3
2018-01-03T00:59:37.584Z,981.3
2018-01-03T01:00:38.244Z,981.3
2018-01-03T01:01:38.902Z,981.2
2018-01-03T01:02:39.561Z,981.3
2018-01-03T01:03:40.220Z,981.1
2018-01-03T01:04:40.879Z,981.1
2018-01-03T01:05:41.538Z,981.1
2018-01-03T01:06:42.198Z,981.2
2018-01-03T01:07:42.857Z,981.1
2018-01-03T01:08:43.516Z,981.0
2018-01-03T01:09:44.175Z,981.0
2018-01-03T01:10:44.834Z,981.0
2018-01-03T01:11:45.498Z,981.0
2018-01-03T01:12:46.152Z,981.0
2018-01-03T01:13:46.861Z,981.0
2018-01-03T01:14:47.520Z,981.0
2018-01-03T01:15:48.180Z,980.9
2018-01-03T01:16:48.838Z,981.0
2018-01-03T01:17:49.498Z,980.8
2018-01-03T01:18:50.157Z,980.7
2018-01-03T01:19:50.816Z,980.8
2018-01-03T01:20:51.476Z,980.6
2018-01-03T01:21:52.136Z,980.7
2018-01-03T01:22:52.794Z,980.7
2018-01-03T01:23:53.453Z,980.6
2018-01-03T01:24:54.113Z,980.6
2018-01-03T01:25:54.773Z,980.5
2018-01-03T01:26:55.432Z,980.4
2018-01-03T01:27:56.092Z,980.4
2018-01-03T01:28:56.753Z,980.4
2018-01-03T01:29:57.412Z,980.2
2018-01-03T01:30:58.070Z,980.2
2018-01-03T01:31:58.729Z,980.2
2018-01-03T01:32:59.390Z,980.2
2018-01-03T01:34:00.051Z,980.1
2018-01-03T01:35:00.708Z,980.2
2018-01-03T01:36:01.368Z,980.1
2018-01-03T01:37:02.028Z,980.1
2018-01-03T01:38:02.686Z,980.1
2018-01-03T01:39:03.346Z,979.9
2018-01-03T01:40:04.005Z,979.8
2018-01-03T01:41:04.664Z,979.9
2018-01-03T01:42:05.323Z,979.9
2018-01-03T01:43:05.982Z,979.9
2018-01-03T01:44:06.641Z,979.9
2018-01-03T01:45:07.300Z,979.9
2018-01-03T01:46:07.964Z,979.8
2018-01-03T01:47:08.616Z,979.8
2018-01-03T01:48:09.274Z,979.8
2018-01-03T01:49:09.931Z,979.7
2018-01-03T01:50:10.591Z,979.7
2018-01-03T01:51:11.250Z,979.7
2018-01-03T01:52:11.909Z,979.6
2018-01-03T01:53:12.605Z,979.6
2018-01-03T01:54:13.264Z,979.4
2018-01-03T01:55:13.925Z,979.3
2018-01-03T01:56:14.585Z,979.3
2018-01-03T01:57:15.248Z,979.3
2018-01-03T01:58:15.905Z,979.2
2018-01-03T01:59:16.601Z,979.1
2018-01-03T02:00:17.259Z,979.1
2018-01-03T02:01:17.917Z,979.1
2018-01-03T02:02:18.575Z,979.1
2018-01-03T02:03:19.236Z,979.1
2018-01-03T02:04:19.891Z,978.9
2018-01-03T02:05:20.550Z,979.0
2018-01-03T02:06:21.207Z,978.9
2018-01-03T02:07:21.867Z,978.9
2018-01-03T02:08:22.524Z,978.9
2018-01-03T02:09:23.183Z,978.8
2018-01-03T02:10:23.842Z,978.8
2018-01-03T02:11:24.503Z,978.7
2018-01-03T02:12:25.161Z,978.8
2018-01-03T02:13:25.820Z,978.7
2018-01-03T02:14:26.483Z,978.7
2018-01-03T02:15:27.138Z,978.7
2018-01-03T02:16:27.797Z,978.7
2018-01-03T02:17:28.455Z,978.6
2018-01-03T02:18:29.114Z,978.4
2018-01-03T02:19:29.773Z,978.5
2018-01-03T02:20:30.432Z,978.5
2018-01-03T02:21:31.093Z,978.4
2018-01-03T02:22:31.751Z,978.3
2018-01-03T02:23:32.410Z,978.3
2018-01-03T02:24:33.070Z,978.2
2018-01-03T02:25:33.728Z,978.3
2018-01-03T02:26:34.387Z,978.1
2018-01-03T02:27:35.046Z,978.1
2018-01-03T02:28:35.705Z,978.1
2018-01-03T02:29:36.364Z,978.0
2018-01-03T02:30:37.023Z,978.0
2018-01-03T02:31:37.682Z,978.0
2018-01-03T02:32:38.342Z,977.9
2018-01-03T02:33:39.002Z,978.0
2018-01-03T02:34:39.662Z,977.9
2018-01-03T02:35:40.320Z,977.9
2018-01-03T02:36:40.985Z,978.0
2018-01-03T02:37:41.636Z,977.7
2018-01-03T02:38:42.294Z,977.8
2018-01-03T02:39:42.951Z,977.9
2018-01-03T02:40:43.611Z,977.8
2018-01-03T02:41:44.269Z,977.9
2018-01-03T02:42:44.929Z,977.7
2018-01-03T02:43:45.592Z,977.8
2018-01-03T02:44:46.247Z,977.7
2018-01-03T02:45:46.907Z,977.7
2018-01-03T02:46:47.594Z,977.6
2018-01-03T02:47:48.250Z,977.6
2018-01-03T02:48:48.909Z,977.6
2018-01-03T02:49:49.567Z,977.6
2018-01-03T02:50:50.225Z,977.4
2018-01-03T02:51:50.884Z,977.3
2018-01-03T02:52:51.541Z,977.1
2018-01-03T02:53:52.199Z,977.1
2018-01-03T02:54:52.858Z,976.9
2018-01-03T02:55:53.516Z,976.8
2018-01-03T02:56:54.176Z,976.7
2018-01-03T02:57:54.870Z,976.7
2018-01-03T02:58:55.530Z,976.6
2018-01-03T02:59:56.187Z,976.4
2018-01-03T03:00:56.848Z,976.5
2018-01-03T03:01:57.503Z,976.5
2018-01-03T03:02:58.159Z,976.6
2018-01-03T03:03:58.818Z,976.4
2018-01-03T03:04:59.478Z,976.4
2018-01-03T03:06:00.141Z,976.3
2018-01-03T03:07:00.835Z,976.4
2018-01-03T03:08:01.494Z,976.4
2018-01-03T03:09:02.155Z,976.4
2018-01-03T03:10:02.865Z,976.3
2018-01-03T03:11:03.522Z,976.2
2018-01-03T03:12:04.179Z,976.1
2018-01-03T03:13:04.837Z,976.1
2018-01-03T03:14:05.494Z,976.1
2018-01-03T03:15:06.202Z,975.9
2018-01-03T03:16:06.859Z,975.9
2018-01-03T03:17:07.518Z,975.8
2018-01-03T03:18:08.174Z,975.6
2018-01-03T03:19:08.833Z,975.6
2018-01-03T03:20:09.490Z,975.6
2018-01-03T03:21:10.148Z,975.5
2018-01-03T03:22:10.806Z,975.5
2018-01-03T03:23:11.465Z,975.4
2018-01-03T03:24:12.124Z,975.4
2018-01-03T03:25:12.781Z,975.5
2018-01-03T03:26:13.440Z,975.4
2018-01-03T03:27:14.100Z,975.3
2018-01-03T03:28:14.758Z,975.2
2018-01-03T03:29:15.416Z,975.2
2018-01-03T03:30:16.076Z,975.1
2018-01-03T03:31:16.736Z,975.1
2018-01-03T03:32:17.394Z,974.9
2018-01-03T03:33:18.053Z,974.8
2018-01-03T03:34:18.711Z,974.6
2018-01-03T03:35:19.371Z,974.4
2018-01-03T03:36:20.029Z,974.4
2018-01-03T03:37:20.689Z,974.3
2018-01-03T03:38:21.346Z,974.2
2018-01-03T03:39:22.007Z,974.0
2018-01-03T03:40:22.665Z,974.0
2018-01-03T03:41:23.324Z,973.8
2018-01-03T03:42:23.985Z,973.8
2018-01-03T03:43:24.642Z,973.8
2018-01-03T03:44:25.301Z,973.9
2018-01-03T03:45:25.958Z,973.7
2018-01-03T03:46:26.618Z,973.6
2018-01-03T03:47:27.277Z,973.6
2018-01-03T03:48:27.938Z,973.7
2018-01-03T03:49:28.595Z,973.3
2018-01-03T03:50:29.255Z,973.5
2018-01-03T03:51:29.916Z,973.4
2018-01-03T03:52:30.609Z,973.4
2018-01-03T03:53:31.269Z,973.4
2018-01-03T03:54:31.929Z,973.5
2018-01-03T03:55:32.591Z,973.4
2018-01-03T03:56:33.247Z,973.3
2018-01-03T03:57:33.907Z,973.3
2018-01-03T03:58:34.566Z,973.2
2018-01-03T03:59:35.227Z,973.1
2018-01-03T04:00:35.887Z,973.1
2018-01-03T04:01:36.546Z,973.0
2018-01-03T04:02:37.204Z,972.9
2018-01-03T04:03:37.865Z,972.9
2018-01-03T04:04:38.559Z,972.7
2018-01-03T04:05:39.218Z,972.8
2018-01-03T04:06:39.878Z,972.7
2018-01-03T04:07:40.538Z,972.6
2018-01-03T04:08:41.198Z,972.6
2018-01-03T04:09:41.858Z,972.6
2018-01-03T04:10:42.518Z,972.6
2018-01-03T04:11:43.176Z,972.5
2018-01-03T04:12:43.836Z,972.4
2018-01-03T04:13:44.496Z,972.4
2018-01-03T04:14:45.155Z,972.3
2018-01-03T04:15:45.813Z,972.2
2018-01-03T04:16:46.477Z,972.1
2018-01-03T04:17:47.132Z,972.1
2018-01-03T04:18:47.791Z,972.1
2018-01-03T04:19:48.452Z,971.9
2018-01-03T04:20:49.112Z,971.8
2018-01-03T04:21:49.770Z,971.6
2018-01-03T04:22:50.428Z,971.6
2018-01-03T04:23:51.088Z,971.8
2018-01-03T04:24:51.747Z,971.8
2018-01-03T04:25:52.453Z,971.8
2018-01-03T04:26:53.102Z,971.8
2018-01-03T04:27:53.760Z,971.9
2018-01-03T04:28:54.420Z,972.0
2018-01-03T04:29:55.080Z,972.0
2018-01-03T04:30:55.741Z,971.9
2018-01-03T04:31:56.401Z,971.7
2018-01-03T04:32:57.061Z,971.9
2018-01-03T04:33:57.722Z,971.7
2018-01-03T04:34:58.381Z,971.7
2018-01-03T04:35:59.041Z,971.6
2018-01-03T04:36:59.699Z,971.6
2018-01-03T04:38:00.359Z,971.5
2018-01-03T04:39:01.019Z,971.3
2018-01-03T04:40:01.702Z,971.5
2018-01-03T04:41:02.338Z,971.4
2018-01-03T04:42:02.998Z,971.5
2018-01-03T04:43:03.656Z,971.5
2018-01-03T04:44:04.315Z,971.3
2018-01-03T04:45:04.974Z,971.4
2018-01-03T04:46:05.632Z,971.3
2018-01-03T04:47:06.291Z,971.2
2018-01-03T04:48:06.988Z,971.1
2018-01-03T04:49:07.649Z,971.0
2018-01-03T04:50:08.310Z,970.8
2018-01-03T04:51:08.972Z,970.7
2018-01-03T04:52:09.632Z,970.7
2018-01-03T04:53:10.294Z,970.7
2018-01-03T04:54:10.953Z,970.6
2018-01-03T04:55:11.614Z,970.7
2018-01-03T04:56:12.273Z,970.6
2018-01-03T04:57:12.932Z,970.4
2018-01-03T04:58:13.593Z,970.4
2018-01-03T04:59:14.289Z,970.2
2018-01-03T05:00:14.985Z,970.1
2018-01-03T05:01:15.646Z,970.0
2018-01-03T05:02:16.306Z,969.9
2018-01-03T05:03:16.967Z,969.8
2018-01-03T05:04:17.626Z,969.7
2018-01-03T05:05:18.288Z,969.6
2018-01-03T05:06:18.950Z,969.5
2018-01-03T05:07:19.610Z,969.5
2018-01-03T05:08:20.270Z,969.3
2018-01-03T05:09:20.932Z,969.2
2018-01-03T05:10:21.592Z,968.9
2018-01-03T05:11:22.249Z,968.8
2018-01-03T05:12:22.909Z,968.9
2018-01-03T05:13:23.568Z,969.1
2018-01-03T05:14:24.228Z,969.2
2018-01-03T05:15:24.888Z,969.1
2018-01-03T05:16:25.547Z,969.1
2018-01-03T05:17:26.206Z,969.1
2018-01-03T05:18:26.865Z,969.1
2018-01-03T05:19:27.524Z,968.9
2018-01-03T05:20:28.184Z,968.9
2018-01-03T05:21:28.880Z,968.7
2018-01-03T05:22:29.542Z,968.7
2018-01-03T05:23:30.203Z,968.7
2018-01-03T05:24:30.862Z,968.7
2018-01-03T05:25:31.522Z,968.5
2018-01-03T05:26:32.182Z,968.4
2018-01-03T05:27:32.840Z,968.3
2018-01-03T05:28:33.500Z,968.2
2018-01-03T05:29:34.195Z,968.3
2018-01-03T05:30:34.856Z,968.4
2018-01-03T05:31:35.516Z,968.4
2018-01-03T05:32:36.177Z,968.3
2018-01-03T05:33:36.837Z,968.0
2018-01-03T05:34:37.497Z,967.9
2018-01-03T05:35:38.156Z,968.0
2018-01-03T05:36:38.815Z,968.0
2018-01-03T05:37:39.476Z,968.0
2018-01-03T05:38:40.133Z,967.9
2018-01-03T05:39:40.793Z,967.9
2018-01-03T05:40:41.452Z,967.8
2018-01-03T05:41:42.112Z,967.8
2018-01-03T05:42:42.773Z,967.8
2018-01-03T05:43:43.433Z,967.7
2018-01-03T05:44:44.094Z,967.8
2018-01-03T05:45:44.754Z,967.7
2018-01-03T05:46:45.452Z,967.8
2018-01-03T05:47:46.113Z,967.8
2018-01-03T05:48:46.774Z,967.6
2018-01-03T05:49:47.435Z,967.7
2018-01-03T05:50:48.098Z,967.5
2018-01-03T05:51:48.755Z,967.5
2018-01-03T05:52:49.415Z,967.5
2018-01-03T05:53:50.113Z,967.5
2018-01-03T05:54:50.780Z,967.5
2018-01-03T05:55:51.435Z,967.5
2018-01-03T05:56:52.095Z,967.3
2018-01-03T05:57:52.757Z,967.5
2018-01-03T05:58:53.452Z,967.3
2018-01-03T05:59:54.112Z,967.4
2018-01-03T06:00:54.774Z,967.2
2018-01-03T06:01:55.436Z,967.3
2018-01-03T06:02:56.133Z,967.2
2018-01-03T06:03:56.794Z,966.9
2018-01-03T06:04:57.457Z,966.8
2018-01-03T06:05:58.121Z,966.7
2018-01-03T06:06:58.776Z,966.9
2018-01-03T06:07:59.436Z,966.9
2018-01-03T06:09:00.095Z,966.8
2018-01-03T06:10:00.755Z,966.6
2018-01-03T06:11:01.416Z,966.8
2018-01-03T06:12:02.076Z,966.5
2018-01-03T06:13:02.737Z,966.7
2018-01-03T06:14:03.397Z,966.7
2018-01-03T06:15:04.057Z,966.8
2018-01-03T06:16:04.718Z,966.6
2018-01-03T06:17:05.377Z,966.4
2018-01-03T06:18:06.036Z,966.5
2018-01-03T06:19:06.696Z,966.5
2018-01-03T06:20:07.356Z,966.5
2018-01-03T06:21:08.016Z,966.3
2018-01-03T06:22:08.675Z,966.3
2018-01-03T06:23:09.335Z,966.1
2018-01-03T06:24:09.996Z,966.3
2018-01-03T06:25:10.656Z,966.2
2018-01-03T06:26:11.315Z,966.2
2018-01-03T06:27:11.974Z,966.2
2018-01-03T06:28:12.634Z,966.1
2018-01-03T06:29:13.295Z,966.0
2018-01-03T06:30:13.955Z,965.9
2018-01-03T06:31:14.615Z,966.0
2018-01-03T06:32:15.275Z,966.0
2018-01-03T06:33:15.934Z,965.8
2018-01-03T06:34:16.593Z,965.7
2018-01-03T06:35:17.254Z,965.5
2018-01-03T06:36:17.913Z,965.5
2018-01-03T06:37:18.574Z,965.5
2018-01-03T06:38:19.234Z,965.4
2018-01-03T06:39:19.932Z,965.5
2018-01-03T06:40:20.593Z,965.5
2018-01-03T06:41:21.253Z,965.4
2018-01-03T06:42:21.913Z,965.4
2018-01-03T06:43:22.573Z,965.8
2018-01-03T06:44:23.233Z,965.6
2018-01-03T06:45:23.894Z,965.5
2018-01-03T06:46:24.554Z,965.5
2018-01-03T06:47:25.214Z,965.4
2018-01-03T06:48:25.912Z,965.5
2018-01-03T06:49:26.575Z,965.4
2018-01-03T06:50:27.273Z,965.5
2018-01-03T06:51:27.935Z,965.7
2018-01-03T06:52:28.596Z,965.3
2018-01-03T06:53:29.257Z,965.5
2018-01-03T06:54:29.917Z,965.5
2018-01-03T06:55:30.578Z,965.5
2018-01-03T06:56:31.238Z,965.6
2018-01-03T06:57:31.900Z,965.4
2018-01-03T06:58:32.559Z,965.6
2018-01-03T06:59:33.220Z,965.6
2018-01-03T07:00:33.884Z,965.4
2018-01-03T07:01:34.540Z,965.3
2018-01-03T07:02:35.202Z,965.3
2018-01-03T07:03:35.863Z,965.5
2018-01-03T07:04:36.524Z,965.4
2018-01-03T07:05:37.185Z,965.5
2018-01-03T07:06:37.845Z,965.2
2018-01-03T07:07:38.506Z,965.5
2018-01-03T07:08:39.167Z,965.6
2018-01-03T07:09:39.829Z,965.5
2018-01-03T07:10:40.491Z,965.4
2018-01-03T07:11:41.150Z,965.3
2018-01-03T07:12:41.813Z,965.2
2018-01-03T07:13:42.476Z,965.2
2018-01-03T07:14:43.137Z,965.4
2018-01-03T07:15:43.798Z,965.3
2018-01-03T07:16:44.497Z,965.4
2018-01-03T07:17:45.154Z,965.3
2018-01-03T07:18:45.815Z,965.3
2018-01-03T07:19:46.477Z,965.3
2018-01-03T07:20:47.140Z,965.5
2018-01-03T07:21:47.800Z,965.5
2018-01-03T07:22:48.461Z,965.8
2018-01-03T07:23:49.124Z,965.7
2018-01-03T07:24:49.783Z,965.7
2018-01-03T07:25:50.451Z,965.4
2018-01-03T07:26:51.107Z,965.7
2018-01-03T07:27:51.768Z,965.7
2018-01-03T07:28:52.507Z,965.9
2018-01-03T07:29:53.098Z,966.0
2018-01-03T07:30:53.759Z,966.1
2018-01-03T07:31:54.417Z,965.8
2018-01-03T07:32:55.076Z,965.7
2018-01-03T07:33:55.737Z,966.0
2018-01-03T07:34:56.395Z,965.9
2018-01-03T07:35:57.057Z,965.7
2018-01-03T07:36:57.717Z,965.8
2018-01-03T07:37:58.377Z,965.6
2018-01-03T07:38:59.039Z,965.7
2018-01-03T07:39:59.713Z,965.7
2018-01-03T07:41:00.360Z,965.7
2018-01-03T07:42:01.056Z,965.8
2018-01-03T07:43:01.718Z,965.7
2018-01-03T07:44:02.378Z,965.7
2018-01-03T07:45:03.040Z,965.7
2018-01-03T07:46:03.700Z,965.7
2018-01-03T07:47:04.362Z,965.6
2018-01-03T07:48:05.077Z,965.6
2018-01-03T07:49:05.737Z,965.6
2018-01-03T07:50:06.398Z,965.4
2018-01-03T07:51:07.060Z,965.3
2018-01-03T07:52:07.722Z,965.2
2018-01-03T07:53:08.383Z,965.2
2018-01-03T07:54:09.081Z,965.1
2018-01-03T07:55:09.743Z,965.3
2018-01-03T07:56:10.406Z,965.3
2018-01-03T07:57:11.067Z,965.4
2018-01-03T07:58:11.730Z,965.4
2018-01-03T07:59:12.392Z,965.4
2018-01-03T08:00:13.055Z,965.4
2018-01-03T08:01:13.717Z,965.2
2018-01-03T08:02:14.380Z,965.2
2018-01-03T08:03:15.093Z,965.1
2018-01-03T08:04:15.757Z,965.2
2018-01-03T08:05:16.421Z,965.1
2018-01-03T08:06:17.086Z,965.1
2018-01-03T08:07:17.845Z,965.0
2018-01-03T08:08:18.446Z,965.2
2018-01-03T08:09:19.109Z,965.4
2018-01-03T08:10:19.771Z,965.7
2018-01-03T08:11:20.434Z,965.7
2018-01-03T08:12:21.094Z,965.8
2018-01-03T08:13:21.758Z,965.7
2018-01-03T08:14:22.418Z,965.6
2018-01-03T08:15:23.081Z,965.6
2018-01-03T08:16:23.743Z,965.9
2018-01-03T08:17:24.407Z,965.9
2018-01-03T08:18:25.073Z,965.8
2018-01-03T08:19:25.740Z,965.7
2018-01-03T08:20:26.399Z,965.5
2018-01-03T08:21:27.062Z,965.3
2018-01-03T08:22:27.723Z,965.3
2018-01-03T08:23:28.387Z,965.5
2018-01-03T08:24:29.051Z,965.6
2018-01-03T08:25:29.715Z,965.5
2018-01-03T08:26:30.377Z,965.4
2018-01-03T08:27:31.042Z,965.3
2018-01-03T08:28:31.704Z,965.3
2018-01-03T08:29:32.369Z,965.4
2018-01-03T08:30:33.034Z,965.7
2018-01-03T08:31:33.702Z,965.8
2018-01-03T08:32:34.363Z,965.9
2018-01-03T08:33:35.028Z,965.9
2018-01-03T08:34:35.692Z,965.7
2018-01-03T08:35:36.357Z,965.8
2018-01-03T08:36:37.021Z,965.7
2018-01-03T08:37:37.685Z,965.9
2018-01-03T08:38:38.349Z,966.0
2018-01-03T08:39:39.013Z,966.0
2018-01-03T08:40:39.684Z,966.0
2018-01-03T08:41:40.340Z,965.9
2018-01-03T08:42:41.004Z,965.8
2018-01-03T08:43:41.666Z,965.7
2018-01-03T08:44:42.330Z,965.4
2018-01-03T08:45:42.993Z,965.3
2018-01-03T08:46:43.664Z,965.2
2018-01-03T08:47:44.325Z,965.3
2018-01-03T08:48:44.989Z,965.2
2018-01-03T08:49:45.653Z,965.1
2018-01-03T08:50:46.354Z,965.1
2018-01-03T08:51:47.019Z,965.3
2018-01-03T08:52:47.683Z,965.3
2018-01-03T08:53:48.348Z,965.5
2018-01-03T08:54:49.013Z,965.5
2018-01-03T08:55:49.680Z,965.5
2018-01-03T08:56:50.344Z,965.5
2018-01-03T08:57:51.009Z,965.5
2018-01-03T08:58:51.673Z,965.6
2018-01-03T08:59:52.338Z,965.6
2018-01-03T09:00:53.003Z,965.6
2018-01-03T09:01:53.670Z,965.8
2018-01-03T09:02:54.337Z,966.0
2018-01-03T09:03:55.002Z,966.1
2018-01-03T09:04:55.666Z,966.1
2018-01-03T09:05:56.332Z,966.2
2018-01-03T09:06:56.999Z,966.2
2018-01-03T09:07:57.664Z,966.3
2018-01-03T09:08:58.327Z,966.3
2018-01-03T09:09:58.992Z,966.3
2018-01-03T09:10:59.656Z,966.2
2018-01-03T09:12:00.321Z,966.3
2018-01-03T09:13:00.985Z,966.4
2018-01-03T09:14:01.652Z,966.4
2018-01-03T09:15:02.319Z,966.4
2018-01-03T09:16:02.983Z,966.4
2018-01-03T09:17:03.650Z,966.4
2018-01-03T09:18:04.316Z,966.4
2018-01-03T09:19:04.986Z,966.3
2018-01-03T09:20:05.650Z,966.3
2018-01-03T09:21:06.315Z,966.2
2018-01-03T09:22:06.980Z,966.3
2018-01-03T09:23:07.647Z,966.2
2018-01-03T09:24:08.316Z,966.2
2018-01-03T09:25:08.983Z,966.2
2018-01-03T09:26:09.650Z,966.2
2018-01-03T09:27:10.317Z,966.3
2018-01-03T09:28:10.982Z,966.3
2018-01-03T09:29:11.649Z,966.4
2018-01-03T09:30:12.351Z,966.4
2018-01-03T09:31:13.017Z,966.4
2018-01-03T09:32:13.683Z,966.4
2018-01-03T09:33:14.349Z,966.4
2018-01-03T09:34:15.052Z,966.5
2018-01-03T09:35:15.718Z,966.7
2018-01-03T09:36:16.387Z,966.5
2018-01-03T09:37:17.053Z,966.5
2018-01-03T09:38:17.719Z,966.4
2018-01-03T09:39:18.392Z,966.4
2018-01-03T09:40:19.112Z,966.3
2018-01-03T09:41:19.748Z,966.3
2018-01-03T09:42:20.419Z,966.3
2018-01-03T09:43:21.083Z,966.3
2018-01-03T09:44:21.755Z,966.2
2018-01-03T09:45:22.418Z,966.2
2018-01-03T09:46:23.084Z,966.1
2018-01-03T09:47:23.755Z,966.1
2018-01-03T09:48:24.421Z,966.0
2018-01-03T09:49:25.087Z,965.9
2018-01-03T09:50:25.790Z,965.8
2018-01-03T09:51:26.458Z,965.7
2018-01-03T09:52:27.125Z,965.8
2018-01-03T09:53:27.792Z,965.6
2018-01-03T09:54:28.463Z,965.7
2018-01-03T09:55:29.122Z,965.6
2018-01-03T09:56:29.789Z,965.6
2018-01-03T09:57:30.455Z,965.6
2018-01-03T09:58:31.123Z,965.7
2018-01-03T09:59:31.792Z,965.6
2018-01-03T10:00:32.459Z,965.6
2018-01-03T10:01:33.125Z,965.6
2018-01-03T10:02:33.794Z,965.7
2018-01-03T10:03:34.461Z,965.7
2018-01-03T10:04:35.132Z,965.6
2018-01-03T10:05:35.797Z,965.6
2018-01-03T10:06:36.466Z,965.6
2018-01-03T10:07:37.134Z,965.7
2018-01-03T10:08:37.803Z,965.7
2018-01-03T10:09:38.471Z,965.6
2018-01-03T10:10:39.139Z,965.7
2018-01-03T10:11:39.807Z,965.6
2018-01-03T10:12:40.475Z,965.6
2018-01-03T10:13:41.145Z,965.7
2018-01-03T10:14:41.814Z,965.5
2018-01-03T10:15:42.482Z,965.8
2018-01-03T10:16:43.151Z,965.8
2018-01-03T10:17:43.818Z,965.8
2018-01-03T10:18:44.484Z,965.8
2018-01-03T10:19:45.151Z,965.7
2018-01-03T10:20:45.817Z,965.7
2018-01-03T10:21:46.487Z,965.7
2018-01-03T10:22:47.157Z,965.8
2018-01-03T10:23:47.824Z,965.9
2018-01-03T10:24:48.489Z,966.0
2018-01-03T10:25:49.160Z,966.6
2018-01-03T10:26:49.823Z,967.2
2018-01-03T10:27:50.488Z,968.5
2018-01-03T10:28:51.152Z,968.2
2018-01-03T10:29:51.854Z,967.9
2018-01-03T10:30:52.520Z,967.8
2018-01-03T10:31:53.248Z,967.6
2018-01-03T10:32:53.841Z,967.4
2018-01-03T10:33:54.505Z,967.5
2018-01-03T10:34:55.170Z,967.2
2018-01-03T10:35:55.835Z,967.2
2018-01-03T10:36:56.501Z,967.2
2018-01-03T10:37:57.167Z,967.4
2018-01-03T10:38:57.834Z,967.3
2018-01-03T10:39:58.504Z,967.5
2018-01-03T10:40:59.165Z,967.5
2018-01-03T10:41:59.831Z,967.4
2018-01-03T10:43:00.496Z,967.5
2018-01-03T10:44:01.163Z,967.5
2018-01-03T10:45:01.830Z,967.4
2018-01-03T10:46:02.492Z,967.4
2018-01-03T10:47:03.160Z,967.4
2018-01-03T10:48:03.826Z,967.3
2018-01-03T10:49:04.490Z,967.3
2018-01-03T10:50:05.155Z,967.3
2018-01-03T10:51:05.855Z,967.3
2018-01-03T10:52:06.521Z,967.2
2018-01-03T10:53:07.186Z,967.2
2018-01-03T10:54:07.849Z,967.2
2018-01-03T10:55:08.513Z,967.3
2018-01-03T10:56:09.178Z,967.3
2018-01-03T10:57:09.841Z,967.4
2018-01-03T10:58:10.508Z,967.5
2018-01-03T10:59:11.173Z,967.5
2018-01-03T11:00:11.887Z,967.6
2018-01-03T11:01:12.555Z,967.7
2018-01-03T11:02:13.215Z,967.7
2018-01-03T11:03:13.880Z,967.9
2018-01-03T11:04:14.542Z,968.0
2018-01-03T11:05:15.207Z,968.2
2018-01-03T11:06:15.872Z,967.9
2018-01-03T11:07:16.537Z,968.0
2018-01-03T11:08:17.198Z,968.0
2018-01-03T11:09:17.861Z,968.0
2018-01-03T11:10:18.523Z,968.2
2018-01-03T11:11:19.186Z,968.1
2018-01-03T11:12:19.850Z,968.1
2018-01-03T11:13:20.514Z,968.1
2018-01-03T11:14:21.175Z,968.2
2018-01-03T11:15:21.840Z,968.1
2018-01-03T11:16:22.504Z,968.3
2018-01-03T11:17:23.202Z,968.2
2018-01-03T11:18:23.868Z,968.2
2018-01-03T11:19:24.533Z,968.3
2018-01-03T11:20:25.197Z,968.3
2018-01-03T11:21:25.864Z,968.4
2018-01-03T11:22:26.526Z,968.5
2018-01-03T11:23:27.190Z,968.3
2018-01-03T11:24:27.852Z,968.4
2018-01-03T11:25:28.521Z,968.4
2018-01-03T11:26:29.183Z,968.4
2018-01-03T11:27:29.843Z,968.5
2018-01-03T11:28:30.504Z,968.5
2018-01-03T11:29:31.176Z,968.5
2018-01-03T11:30:31.835Z,968.5
2018-01-03T11:31:32.499Z,968.4
2018-01-03T11:32:33.162Z,968.6
2018-01-03T11:33:33.827Z,968.5
2018-01-03T11:34:34.492Z,968.5
2018-01-03T11:35:35.160Z,968.5
2018-01-03T11:36:35.855Z,968.4
2018-01-03T11:37:36.519Z,968.4
2018-01-03T11:38:37.182Z,968.4
2018-01-03T11:39:37.846Z,968.4
2018-01-03T11:40:38.510Z,968.4
2018-01-03T11:41:39.173Z,968.4
2018-01-03T11:42:39.838Z,968.4
2018-01-03T11:43:40.504Z,968.4
2018-01-03T11:44:41.168Z,968.4
2018-01-03T11:45:41.836Z,968.5
2018-01-03T11:46:42.501Z,968.6
2018-01-03T11:47:43.204Z,968.5
2018-01-03T11:48:43.870Z,968.5
2018-01-03T11:49:44.570Z,968.6
2018-01-03T11:50:45.486Z,968.6
2018-01-03T11:51:46.151Z,968.7
2018-01-03T11:52:46.818Z,968.6
2018-01-03T11:53:47.484Z,968.6
2018-01-03T11:54:48.147Z,968.6
2018-01-03T11:55:48.810Z,968.7
2018-01-03T11:56:49.476Z,968.7
2018-01-03T11:57:50.141Z,968.6
2018-01-03T11:58:50.804Z,968.7
2018-01-03T11:59:51.468Z,968.6
2018-01-03T12:00:52.130Z,968.6
2018-01-03T12:01:52.794Z,968.7
2018-01-03T12:02:53.460Z,968.7
2018-01-03T12:03:54.127Z,968.7
2018-01-03T12:04:54.791Z,968.7
2018-01-03T12:05:55.456Z,968.7
2018-01-03T12:06:56.119Z,968.8
2018-01-03T12:07:56.785Z,968.7
2018-01-03T12:08:57.447Z,968.8
2018-01-03T12:09:58.112Z,968.8
2018-01-03T12:10:58.776Z,968.9
2018-01-03T12:11:59.441Z,968.9
2018-01-03T12:13:00.108Z,968.8
2018-01-03T12:14:00.775Z,968.9
2018-01-03T12:15:01.440Z,968.9
2018-01-03T12:16:02.105Z,968.8
2018-01-03T12:17:02.770Z,968.7
2018-01-03T12:18:03.435Z,968.8
2018-01-03T12:19:04.102Z,968.9
2018-01-03T12:20:04.765Z,968.9
2018-01-03T12:21:05.431Z,969.0
2018-01-03T12:22:06.099Z,968.9
2018-01-03T12:23:06.767Z,969.0
2018-01-03T12:24:07.428Z,968.8
2018-01-03T12:25:08.095Z,968.9
2018-01-03T12:26:08.843Z,968.9
2018-01-03T12:27:09.466Z,969.0
2018-01-03T12:28:10.130Z,968.9
2018-01-03T12:29:10.794Z,968.9
2018-01-03T12:30:11.458Z,969.1
2018-01-03T12:31:12.124Z,969.0
2018-01-03T12:32:12.790Z,968.9
2018-01-03T12:33:13.455Z,969.0
2018-01-03T12:34:14.119Z,969.0
2018-01-03T12:35:14.784Z,969.1
2018-01-03T12:36:15.465Z,969.1
2018-01-03T12:37:16.116Z,969.1
2018-01-03T12:38:16.782Z,969.0
2018-01-03T12:39:17.446Z,969.3
2018-01-03T12:40:18.109Z,969.4
2018-01-03T12:41:18.774Z,969.3
2018-01-03T12:42:19.441Z,969.5
2018-01-03T12:43:20.107Z,969.6
2018-01-03T12:44:20.772Z,969.7
2018-01-03T12:45:21.435Z,969.6
2018-01-03T12:46:22.101Z,969.6
2018-01-03T12:47:22.765Z,969.6
2018-01-03T12:48:23.430Z,969.7
2018-01-03T12:49:24.095Z,969.7
2018-01-03T12:50:24.758Z,969.9
2018-01-03T12:51:25.423Z,969.9
2018-01-03T12:52:26.093Z,969.8
2018-01-03T12:53:26.788Z,969.8
2018-01-03T12:54:27.457Z,969.9
2018-01-03T12:55:28.123Z,969.9
2018-01-03T12:56:28.784Z,970.0
2018-01-03T12:57:29.448Z,969.9
2018-01-03T12:58:30.113Z,970.0
2018-01-03T12:59:30.779Z,969.9
2018-01-03T13:00:31.445Z,970.2
2018-01-03T13:01:32.111Z,969.8